Time;durP1;ratioP1;P1;durP2;ratioP2;P2;SDS_P1;SDS_P2;PMS_P1;PMS_P2;Temp;Humidity;BMP_temperature;BMP_pressure;BME280_temperature;BME280_humidity;BME280_pressure;Samples;Min_cycle;Max_cycle;Signal;HPM_P1;HPM_P2
2023/08/18 00:00:11;;;;;;;5.03;3.80;;;20.50;99.90;;;;;;5087571;28;20623;-82
2023/08/18 00:02:38;;;;;;;6.80;4.13;;;20.50;99.90;;;;;;5088186;28;20630;-83
2023/08/18 00:05:06;;;;;;;7.37;4.30;;;20.50;99.90;;;;;;5087964;28;20638;-82
2023/08/18 00:07:32;;;;;;;4.77;3.93;;;20.40;99.90;;;;;;5087581;28;20642;-82
2023/08/18 00:10:03;;;;;;;4.40;3.87;;;20.30;99.90;;;;;;5086826;28;20649;-82
2023/08/18 00:12:30;;;;;;;3.47;3.17;;;20.40;99.90;;;;;;5086826;28;20831;-82
2023/08/18 00:14:57;;;;;;;3.67;3.30;;;20.40;99.90;;;;;;5088063;28;20715;-81
2023/08/18 00:17:23;;;;;;;5.23;3.77;;;20.30;99.90;;;;;;5088182;28;20635;-82
2023/08/18 00:19:50;;;;;;;5.00;3.70;;;20.40;99.90;;;;;;5086562;28;20626;-82
2023/08/18 00:22:17;;;;;;;4.40;3.90;;;20.40;99.90;;;;;;5087786;28;20622;-83
2023/08/18 00:24:44;;;;;;;4.60;4.20;;;20.30;99.90;;;;;;5087572;28;20798;-83
2023/08/18 00:27:12;;;;;;;4.00;3.63;;;20.30;99.90;;;;;;5087312;28;20633;-81
2023/08/18 00:29:39;;;;;;;4.63;4.23;;;20.20;99.90;;;;;;5087072;28;21167;-82
2023/08/18 00:32:07;;;;;;;4.37;3.97;;;20.10;99.90;;;;;;5087237;28;20621;-82
2023/08/18 00:34:34;;;;;;;5.47;4.07;;;20.10;99.90;;;;;;5086679;28;20757;-82
2023/08/18 00:37:02;;;;;;;5.17;4.67;;;20.10;99.90;;;;;;5087568;28;20261;-81
2023/08/18 00:39:29;;;;;;;4.77;4.27;;;20.00;99.90;;;;;;5086418;28;20729;-82
2023/08/18 00:41:56;;;;;;;5.00;4.10;;;20.00;99.90;;;;;;5087670;28;20629;-82
2023/08/18 00:44:24;;;;;;;4.87;4.10;;;19.90;99.90;;;;;;5086920;28;21194;-83
2023/08/18 00:46:51;;;;;;;4.60;3.90;;;19.90;99.90;;;;;;5086870;28;21206;-82
2023/08/18 00:49:19;;;;;;;5.10;3.27;;;19.80;99.90;;;;;;5086592;28;20658;-82
2023/08/18 00:51:47;;;;;;;4.63;3.40;;;19.80;99.90;;;;;;5086173;28;20639;-83
2023/08/18 00:54:15;;;;;;;4.43;4.00;;;19.80;99.90;;;;;;5086505;28;20635;-81
2023/08/18 00:56:45;;;;;;;5.50;3.90;;;19.80;99.90;;;;;;5086432;28;20731;-83
2023/08/18 00:59:12;;;;;;;4.20;3.60;;;19.50;99.90;;;;;;5086633;28;20693;-83
2023/08/18 01:01:42;;;;;;;4.63;4.10;;;19.40;99.90;;;;;;5087092;28;20622;-82
2023/08/18 01:04:09;;;;;;;4.87;4.40;;;19.30;99.90;;;;;;5086578;28;20991;-82
2023/08/18 01:06:38;;;;;;;4.57;3.40;;;19.20;99.90;;;;;;5087929;28;20734;-82
2023/08/18 01:09:06;;;;;;;5.20;4.80;;;19.10;99.90;;;;;;5085867;28;20631;-82
2023/08/18 01:11:39;;;;;;;4.47;2.97;;;19.00;99.90;;;;;;5086337;28;20624;-83
2023/08/18 01:14:21;;;;;;;3.70;3.40;;;19.00;99.90;;;;;;5086512;28;21031;-82
2023/08/18 01:16:57;;;;;;;3.87;3.57;;;19.10;99.90;;;;;;5087284;28;20617;-82
2023/08/18 01:19:25;;;;;;;5.43;4.10;;;19.10;99.90;;;;;;5085761;28;20800;-81
2023/08/18 01:21:57;;;;;;;4.90;4.50;;;19.10;99.90;;;;;;5087051;28;20651;-82
2023/08/18 01:24:26;;;;;;;4.83;4.30;;;19.20;99.90;;;;;;5086921;28;20639;-82
2023/08/18 01:26:54;;;;;;;4.70;4.00;;;19.40;99.90;;;;;;5086759;28;21132;-82
2023/08/18 01:29:22;;;;;;;5.27;3.60;;;19.30;99.90;;;;;;5085508;28;21117;-82
2023/08/18 01:31:54;;;;;;;4.13;3.50;;;19.20;99.90;;;;;;5085913;28;21257;-83
2023/08/18 01:34:25;;;;;;;4.40;4.00;;;19.10;99.90;;;;;;5086213;28;20721;-82
2023/08/18 01:36:55;;;;;;;5.20;4.67;;;18.90;99.90;;;;;;5086831;28;20631;-83
2023/08/18 01:39:23;;;;;;;3.53;3.23;;;18.80;99.90;;;;;;5086365;28;20999;-82
2023/08/18 01:41:53;;;;;;;3.50;3.20;;;18.80;99.90;;;;;;5086224;28;20641;-82
2023/08/18 01:44:21;;;;;;;5.00;3.47;;;18.90;99.90;;;;;;5085838;28;20640;-81
2023/08/18 01:46:49;;;;;;;4.70;4.30;;;19.00;99.90;;;;;;5087016;28;21212;-82
2023/08/18 01:49:17;;;;;;;4.13;3.10;;;19.00;99.90;;;;;;5086216;28;20748;-82
2023/08/18 01:51:44;;;;;;;4.77;4.37;;;19.00;99.90;;;;;;5086079;28;20649;-81
2023/08/18 01:54:13;;;;;;;4.50;3.87;;;18.90;99.90;;;;;;5086292;28;21227;-82
2023/08/18 01:56:41;;;;;;;8.83;4.50;;;18.90;99.90;;;;;;5086327;28;21594;-82
2023/08/18 01:59:10;;;;;;;5.93;3.90;;;19.00;99.90;;;;;;5085802;28;20636;-82
2023/08/18 02:01:38;;;;;;;4.47;4.07;;;18.90;99.90;;;;;;5086036;28;21385;-83
2023/08/18 02:04:05;;;;;;;3.97;3.60;;;18.80;99.90;;;;;;5086308;28;20674;-83
2023/08/18 02:06:33;;;;;;;3.60;3.30;;;18.70;99.90;;;;;;5086669;28;21368;-83
2023/08/18 02:09:00;;;;;;;4.07;3.67;;;18.60;99.90;;;;;;5085755;28;20616;-82
2023/08/18 02:11:27;;;;;;;7.80;4.07;;;18.70;99.90;;;;;;5086097;28;20666;-82
2023/08/18 02:13:53;;;;;;;3.30;3.10;;;18.80;99.90;;;;;;5086197;28;20728;-82
2023/08/18 02:16:21;;;;;;;4.67;4.23;;;18.80;99.90;;;;;;5086744;28;20630;-82
2023/08/18 02:18:49;;;;;;;5.13;4.70;;;18.70;99.90;;;;;;5085991;28;21215;-83
2023/08/18 02:21:16;;;;;;;4.80;4.40;;;18.50;99.90;;;;;;5085747;28;20753;-82
2023/08/18 02:23:44;;;;;;;4.10;3.77;;;18.60;99.90;;;;;;5086224;28;21184;-82
2023/08/18 02:26:12;;;;;;;4.13;3.70;;;18.70;99.90;;;;;;5088441;28;21223;-82
2023/08/18 02:28:41;;;;;;;3.90;3.60;;;18.70;99.90;;;;;;5090013;28;20628;-83
2023/08/18 02:31:10;;;;;;;3.63;3.33;;;18.60;99.90;;;;;;5089641;28;20637;-82
2023/08/18 02:33:39;;;;;;;3.30;2.97;;;18.60;99.90;;;;;;5090409;28;20652;-83
2023/08/18 02:36:06;;;;;;;4.50;3.60;;;18.70;99.90;;;;;;5089866;28;20616;-82
2023/08/18 02:38:35;;;;;;;3.87;3.40;;;18.70;99.90;;;;;;5090024;28;20652;-82
2023/08/18 02:41:02;;;;;;;4.20;3.80;;;18.70;99.90;;;;;;5089934;28;20622;-83
2023/08/18 02:43:30;;;;;;;4.80;3.10;;;18.80;99.90;;;;;;5089368;28;21456;-82
2023/08/18 02:45:57;;;;;;;4.77;4.17;;;18.80;99.90;;;;;;5089473;28;20635;-82
2023/08/18 02:48:27;;;;;;;5.07;3.70;;;18.80;99.90;;;;;;5089119;28;20628;-81
2023/08/18 02:51:03;;;;;;;5.73;3.70;;;18.80;99.90;;;;;;5089537;28;21123;-83
2023/08/18 02:53:31;;;;;;;3.93;3.63;;;18.70;99.90;;;;;;5090492;28;20631;-82
2023/08/18 02:56:00;;;;;;;4.00;3.57;;;18.60;99.90;;;;;;5088907;28;20817;-82
2023/08/18 02:58:28;;;;;;;6.47;3.60;;;18.60;99.90;;;;;;5089513;28;20728;-83
2023/08/18 03:00:56;;;;;;;4.07;3.63;;;18.40;99.90;;;;;;5088540;28;20626;-81
2023/08/18 03:03:24;;;;;;;4.00;3.37;;;18.20;99.90;;;;;;5089953;28;20738;-81
2023/08/18 03:05:52;;;;;;;4.27;3.33;;;18.30;99.90;;;;;;5089621;28;20733;-81
2023/08/18 03:08:20;;;;;;;4.00;3.60;;;18.30;99.90;;;;;;5088536;28;20633;-82
2023/08/18 03:10:56;;;;;;;3.97;3.67;;;18.30;99.90;;;;;;5088682;28;21413;-83
2023/08/18 03:13:25;;;;;;;4.33;3.93;;;18.40;99.90;;;;;;5088491;28;20612;-83
2023/08/18 03:15:52;;;;;;;4.50;4.10;;;18.40;99.90;;;;;;5089344;28;20848;-82
2023/08/18 03:18:19;;;;;;;4.53;3.67;;;18.40;99.90;;;;;;5089623;28;20628;-82
2023/08/18 03:20:47;;;;;;;6.83;4.13;;;18.20;99.90;;;;;;5088322;28;20635;-82
2023/08/18 03:23:15;;;;;;;5.00;3.77;;;18.20;99.90;;;;;;5088853;28;21030;-82
2023/08/18 03:25:43;;;;;;;4.20;3.80;;;18.20;99.90;;;;;;5088437;28;20619;-83
2023/08/18 03:28:11;;;;;;;4.50;3.93;;;18.20;99.90;;;;;;5088773;28;20656;-82
2023/08/18 03:30:38;;;;;;;3.60;3.30;;;18.20;99.90;;;;;;5088934;28;20736;-83
2023/08/18 03:33:05;;;;;;;6.20;3.73;;;18.20;99.90;;;;;;5088803;28;20636;-82
2023/08/18 03:35:35;;;;;;;8.87;3.90;;;18.20;99.90;;;;;;5088795;28;20634;-83
2023/08/18 03:38:01;;;;;;;3.97;3.60;;;18.20;99.90;;;;;;5088459;28;20628;-82
2023/08/18 03:40:28;;;;;;;4.30;3.90;;;18.20;99.90;;;;;;5086932;28;20621;-82
2023/08/18 03:42:56;;;;;;;4.60;3.57;;;18.30;99.90;;;;;;5089015;28;20635;-83
2023/08/18 03:45:23;;;;;;;7.17;3.90;;;18.20;99.90;;;;;;5087943;28;20628;-82
2023/08/18 03:47:51;;;;;;;4.30;3.90;;;18.20;99.90;;;;;;5088162;28;20639;-82
2023/08/18 03:50:21;;;;;;;7.87;4.53;;;18.10;99.90;;;;;;5088241;28;20659;-82
2023/08/18 03:52:48;;;;;;;4.60;4.30;;;18.10;99.90;;;;;;5088020;28;20993;-82
2023/08/18 03:55:14;;;;;;;8.03;4.27;;;18.00;99.90;;;;;;5088910;28;20636;-82
2023/08/18 03:57:41;;;;;;;4.00;3.50;;;17.80;99.90;;;;;;5089223;28;20636;-83
2023/08/18 04:00:11;;;;;;;3.70;3.20;;;17.80;99.90;;;;;;5087501;28;20636;-82
2023/08/18 04:02:38;;;;;;;5.10;3.20;;;17.80;99.90;;;;;;5087923;28;20625;-82
2023/08/18 04:05:06;;;;;;;4.37;3.97;;;17.70;99.90;;;;;;5088797;28;20632;-82
2023/08/18 04:07:33;;;;;;;3.40;3.10;;;17.70;99.90;;;;;;5087754;28;20665;-83
2023/08/18 04:09:59;;;;;;;4.70;3.20;;;17.70;99.90;;;;;;5087736;28;20627;-82
2023/08/18 04:12:26;;;;;;;3.73;3.37;;;17.80;99.90;;;;;;5088163;28;20707;-82
2023/08/18 04:14:53;;;;;;;3.27;3.00;;;18.00;99.90;;;;;;5088032;28;20620;-83
2023/08/18 04:17:21;;;;;;;4.30;3.90;;;18.00;99.90;;;;;;5088226;28;21863;-83
2023/08/18 04:19:48;;;;;;;4.13;3.73;;;17.90;99.90;;;;;;5086357;28;20632;-82
2023/08/18 04:22:15;;;;;;;5.10;4.00;;;17.90;99.90;;;;;;5087702;28;20832;-82
2023/08/18 04:24:41;;;;;;;4.80;3.63;;;17.90;99.90;;;;;;5087390;28;20620;-83
2023/08/18 04:27:08;;;;;;;4.23;3.40;;;17.90;99.90;;;;;;5086964;28;20758;-83
2023/08/18 04:29:35;;;;;;;3.87;3.50;;;18.00;99.90;;;;;;5087742;28;21267;-83
2023/08/18 04:32:02;;;;;;;3.57;3.17;;;18.00;99.90;;;;;;5087485;28;20656;-83
2023/08/18 04:34:30;;;;;;;3.87;3.57;;;18.00;99.90;;;;;;5087053;28;21066;-82
2023/08/18 04:36:57;;;;;;;4.67;3.87;;;18.00;99.90;;;;;;5083401;28;21064;-81
2023/08/18 04:39:24;;;;;;;3.97;3.67;;;17.90;99.90;;;;;;5085412;28;20629;-84
2023/08/18 04:41:51;;;;;;;3.90;3.10;;;17.90;99.90;;;;;;5086169;28;20632;-82
2023/08/18 04:44:17;;;;;;;7.33;4.93;;;18.00;99.90;;;;;;5087446;28;21207;-82
2023/08/18 04:46:44;;;;;;;3.20;2.97;;;18.00;99.90;;;;;;5086533;28;21002;-84
2023/08/18 04:49:11;;;;;;;3.80;3.50;;;18.10;99.90;;;;;;5085463;28;20632;-80
2023/08/18 04:51:40;;;;;;;3.90;3.60;;;18.10;99.90;;;;;;5086375;28;20675;-81
2023/08/18 04:54:07;;;;;;;3.47;2.67;;;18.00;99.90;;;;;;5084779;28;20636;-83
2023/08/18 04:56:34;;;;;;;4.20;3.67;;;18.00;99.90;;;;;;5084763;28;21212;-82
2023/08/18 04:59:01;;;;;;;3.90;3.53;;;18.20;99.90;;;;;;5084255;28;20728;-80
2023/08/18 05:01:28;;;;;;;3.70;3.40;;;18.10;99.90;;;;;;5080628;28;20623;-82
2023/08/18 05:03:57;;;;;;;3.17;2.97;;;18.10;99.90;;;;;;5072874;28;20633;-82
2023/08/18 05:06:24;;;;;;;3.63;3.33;;;18.20;99.90;;;;;;5085565;28;20636;-82
2023/08/18 05:08:52;;;;;;;3.90;3.50;;;18.30;99.90;;;;;;5084479;28;20764;-80
2023/08/18 05:11:19;;;;;;;3.97;3.20;;;18.30;99.90;;;;;;5084843;28;20660;-85
2023/08/18 05:13:45;;;;;;;3.70;3.27;;;18.30;99.90;;;;;;5088805;28;20624;-84
2023/08/18 05:16:12;;;;;;;7.53;3.60;;;18.20;99.90;;;;;;5088180;28;20746;-87
2023/08/18 05:18:39;;;;;;;3.30;3.00;;;18.30;99.90;;;;;;5088036;28;21182;-81
2023/08/18 05:21:06;;;;;;;6.73;3.67;;;18.40;99.90;;;;;;5087886;28;20727;-84
2023/08/18 05:23:33;;;;;;;3.50;3.20;;;18.50;99.90;;;;;;5088163;28;21236;-83
2023/08/18 05:26:01;;;;;;;4.33;2.90;;;18.50;99.90;;;;;;5088734;28;20661;-87
2023/08/18 05:28:29;;;;;;;3.80;3.33;;;18.70;99.90;;;;;;5089579;28;20781;-88
2023/08/18 05:30:56;;;;;;;6.40;3.90;;;18.70;99.90;;;;;;5088585;28;20835;-86
2023/08/18 05:33:23;;;;;;;4.30;3.30;;;18.80;99.90;;;;;;5088583;28;20631;-82
2023/08/18 05:35:50;;;;;;;4.37;3.97;;;18.90;99.90;;;;;;5087946;28;20660;-81
2023/08/18 05:38:17;;;;;;;3.27;2.97;;;18.90;99.90;;;;;;5087875;28;20635;-82
2023/08/18 05:40:45;;;;;;;4.13;3.67;;;19.00;99.90;;;;;;5086644;28;21193;-82
2023/08/18 05:43:14;;;;;;;5.37;3.60;;;18.90;99.90;;;;;;5078265;28;21008;-82
2023/08/18 05:45:43;;;;;;;4.30;3.10;;;19.00;99.90;;;;;;5085427;28;20617;-83
2023/08/18 05:48:10;;;;;;;3.83;3.53;;;19.00;99.90;;;;;;5086034;28;20627;-85
2023/08/18 05:50:36;;;;;;;4.07;3.67;;;19.20;99.90;;;;;;5084962;28;20695;-85
2023/08/18 05:53:04;;;;;;;3.93;3.63;;;19.20;99.90;;;;;;5087149;28;20715;-85
2023/08/18 05:55:32;;;;;;;5.57;3.20;;;19.30;99.90;;;;;;5087250;28;20632;-83
2023/08/18 05:58:00;;;;;;;4.97;4.40;;;19.40;99.90;;;;;;5086957;28;20731;-83
2023/08/18 06:00:29;;;;;;;4.07;3.33;;;19.50;99.90;;;;;;5086553;28;20621;-85
2023/08/18 06:02:56;;;;;;;3.43;2.97;;;19.40;99.90;;;;;;5091855;28;20982;-84
2023/08/18 06:05:26;;;;;;;3.70;3.40;;;19.50;99.90;;;;;;5090539;28;20625;-83
2023/08/18 06:07:53;;;;;;;5.00;4.10;;;19.50;99.90;;;;;;5091505;28;20640;-83
2023/08/18 06:10:19;;;;;;;3.70;3.40;;;19.70;99.90;;;;;;5090867;28;20621;-83
2023/08/18 06:12:46;;;;;;;6.57;3.97;;;19.70;99.90;;;;;;5091233;28;20749;-84
2023/08/18 06:15:13;;;;;;;3.87;3.47;;;19.80;99.90;;;;;;5091001;28;20637;-84
2023/08/18 06:17:41;;;;;;;3.67;2.83;;;19.90;99.90;;;;;;5091078;28;20626;-83
2023/08/18 06:20:08;;;;;;;3.27;3.07;;;20.00;99.90;;;;;;5090747;28;21049;-83
2023/08/18 06:22:36;;;;;;;4.40;3.87;;;20.00;99.90;;;;;;5090020;28;20979;-84
2023/08/18 06:25:04;;;;;;;4.13;3.13;;;20.00;99.90;;;;;;5090132;28;21027;-83
2023/08/18 06:27:31;;;;;;;4.30;3.87;;;20.10;99.90;;;;;;5091075;28;21181;-84
2023/08/18 06:29:58;;;;;;;8.50;3.43;;;20.20;99.90;;;;;;5090369;28;20616;-82
2023/08/18 06:32:24;;;;;;;3.50;3.20;;;20.30;99.90;;;;;;5090216;28;20661;-85
2023/08/18 06:34:53;;;;;;;6.80;3.33;;;20.30;99.90;;;;;;5090217;28;20629;-83
2023/08/18 06:37:20;;;;;;;3.10;2.90;;;20.30;99.90;;;;;;5090588;28;20626;-85
2023/08/18 06:39:47;;;;;;;3.50;3.20;;;20.20;99.90;;;;;;5091160;28;20627;-85
2023/08/18 06:42:14;;;;;;;6.17;3.10;;;20.40;99.90;;;;;;5091023;28;20715;-83
2023/08/18 06:44:42;;;;;;;3.30;3.10;;;20.60;99.90;;;;;;5091810;28;20632;-81
2023/08/18 06:47:09;;;;;;;5.00;3.70;;;20.60;99.90;;;;;;5090517;28;20650;-83
2023/08/18 06:49:36;;;;;;;3.50;3.20;;;20.70;99.90;;;;;;5089545;28;21249;-84
2023/08/18 06:52:04;;;;;;;4.77;4.10;;;20.80;99.90;;;;;;5090295;28;20650;-83
2023/08/18 06:54:31;;;;;;;4.00;3.60;;;20.90;99.90;;;;;;5090728;28;20684;-82
2023/08/18 06:56:58;;;;;;;6.47;4.00;;;21.10;99.90;;;;;;5089015;28;20675;-82
2023/08/18 06:59:25;;;;;;;4.53;3.30;;;21.40;99.90;;;;;;5089531;28;20629;-83
2023/08/18 07:01:53;;;;;;;3.73;2.93;;;21.40;99.90;;;;;;5090755;28;20973;-83
2023/08/18 07:04:20;;;;;;;4.63;3.90;;;21.40;99.90;;;;;;5091097;28;20716;-83
2023/08/18 07:06:46;;;;;;;9.53;3.40;;;21.50;99.90;;;;;;5089506;28;20637;-79
2023/08/18 07:09:15;;;;;;;3.27;3.00;;;21.60;99.90;;;;;;5088142;28;20637;-79
2023/08/18 07:11:42;;;;;;;3.40;2.90;;;21.80;99.90;;;;;;5088822;28;20656;-79
2023/08/18 07:14:10;;;;;;;3.80;3.10;;;21.90;99.90;;;;;;5089553;28;20628;-79
2023/08/18 07:16:36;;;;;;;4.90;3.83;;;21.90;99.90;;;;;;5087961;28;20626;-80
2023/08/18 07:19:04;;;;;;;3.43;2.50;;;22.10;99.90;;;;;;5088111;28;20854;-80
2023/08/18 07:21:30;;;;;;;4.10;3.70;;;22.20;99.90;;;;;;5089155;28;20747;-80
2023/08/18 07:23:57;;;;;;;4.13;3.50;;;22.20;99.90;;;;;;5089277;28;21253;-80
2023/08/18 07:26:25;;;;;;;5.83;3.83;;;22.40;99.90;;;;;;5089439;28;20686;-80
2023/08/18 07:28:52;;;;;;;3.40;2.70;;;22.50;99.90;;;;;;5088928;28;20630;-80
2023/08/18 07:31:19;;;;;;;4.40;3.70;;;22.60;99.90;;;;;;5088289;28;20638;-81
2023/08/18 07:33:46;;;;;;;3.17;2.87;;;22.70;99.70;;;;;;5088087;28;20624;-79
2023/08/18 07:36:14;;;;;;;5.83;3.50;;;22.80;99.00;;;;;;5088331;28;20739;-81
2023/08/18 07:38:40;;;;;;;4.83;3.20;;;22.70;99.60;;;;;;5088096;28;20632;-80
2023/08/18 07:41:07;;;;;;;3.83;3.53;;;22.70;99.80;;;;;;5087450;28;20990;-80
2023/08/18 07:43:35;;;;;;;5.60;2.80;;;22.80;99.40;;;;;;5087758;28;20615;-79
2023/08/18 07:46:02;;;;;;;2.83;2.63;;;22.90;98.60;;;;;;5087835;28;21056;-79
2023/08/18 07:48:30;;;;;;;2.70;2.50;;;23.10;98.00;;;;;;5086368;28;21213;-80
2023/08/18 07:50:57;;;;;;;2.80;2.37;;;23.10;97.30;;;;;;5087672;28;20629;-80
2023/08/18 07:53:26;;;;;;;2.83;2.60;;;23.20;97.20;;;;;;5087264;28;20657;-80
2023/08/18 07:55:52;;;;;;;2.50;2.30;;;23.20;96.90;;;;;;5088371;28;20634;-80
2023/08/18 07:58:19;;;;;;;10.03;2.93;;;23.20;97.20;;;;;;5089490;28;20639;-79
2023/08/18 08:00:48;;;;;;;2.73;2.50;;;23.20;97.20;;;;;;5086848;28;20642;-79
2023/08/18 08:03:15;;;;;;;2.60;2.33;;;23.30;96.70;;;;;;5087993;28;21198;-80
2023/08/18 08:05:42;;;;;;;2.73;2.53;;;23.40;97.00;;;;;;5087089;28;21417;-80
2023/08/18 08:08:09;;;;;;;2.83;2.57;;;23.50;96.00;;;;;;5087760;28;20643;-80
2023/08/18 08:10:36;;;;;;;2.60;2.40;;;23.70;94.90;;;;;;5087140;28;20618;-80
2023/08/18 08:13:03;;;;;;;3.70;2.70;;;23.70;94.00;;;;;;5087670;28;20768;-80
2023/08/18 08:15:30;;;;;;;2.47;2.03;;;23.60;94.40;;;;;;5086745;28;20631;-80
2023/08/18 08:17:58;;;;;;;3.13;2.50;;;23.80;94.40;;;;;;5087802;28;20637;-79
2023/08/18 08:20:25;;;;;;;2.10;1.90;;;23.80;95.20;;;;;;5086639;28;20770;-80
2023/08/18 08:22:53;;;;;;;2.50;2.30;;;24.00;93.90;;;;;;5087248;28;21857;-80
2023/08/18 08:25:20;;;;;;;5.60;2.30;;;24.20;93.80;;;;;;5087515;28;20630;-80
2023/08/18 08:27:50;;;;;;;2.33;2.13;;;24.30;94.20;;;;;;5086838;28;20630;-80
2023/08/18 08:30:17;;;;;;;1.70;1.60;;;24.30;93.70;;;;;;5086903;28;20629;-80
2023/08/18 08:32:44;;;;;;;2.73;2.27;;;24.30;93.50;;;;;;5087378;28;20659;-79
2023/08/18 08:35:12;;;;;;;2.47;2.23;;;24.30;93.90;;;;;;5087856;28;20983;-80
2023/08/18 08:37:41;;;;;;;2.33;1.80;;;24.50;93.90;;;;;;5087365;28;20627;-79
2023/08/18 08:40:13;;;;;;;2.50;2.40;;;24.60;93.30;;;;;;5086017;28;21050;-79
2023/08/18 08:42:40;;;;;;;2.10;1.90;;;24.80;92.80;;;;;;5086252;28;20623;-80
2023/08/18 08:45:08;;;;;;;3.13;2.27;;;24.90;92.10;;;;;;5087384;28;20990;-79
2023/08/18 08:47:35;;;;;;;2.17;1.97;;;25.00;91.90;;;;;;5086211;28;22475;-79
2023/08/18 08:50:04;;;;;;;2.63;1.80;;;25.00;92.40;;;;;;5085990;28;20690;-79
2023/08/18 08:52:37;;;;;;;2.37;2.17;;;25.20;91.70;;;;;;5087225;28;20655;-80
2023/08/18 08:55:05;;;;;;;2.70;2.50;;;25.20;91.50;;;;;;5085009;28;20635;-79
2023/08/18 08:57:32;;;;;;;3.30;2.40;;;25.30;91.10;;;;;;5086164;28;20726;-80
2023/08/18 09:00:00;;;;;;;2.87;2.67;;;25.40;90.50;;;;;;5085991;28;20639;-80
2023/08/18 09:02:27;;;;;;;4.03;2.20;;;25.50;91.00;;;;;;5086342;28;21291;-80
2023/08/18 09:04:54;;;;;;;4.10;2.87;;;25.60;91.40;;;;;;5087009;28;21246;-81
2023/08/18 09:07:21;;;;;;;2.20;2.10;;;25.80;90.70;;;;;;5085279;28;20743;-79
2023/08/18 09:09:49;;;;;;;2.17;1.97;;;25.90;90.40;;;;;;5086554;28;21177;-80
2023/08/18 09:12:17;;;;;;;1.97;1.80;;;25.90;87.80;;;;;;5086328;28;21244;-80
2023/08/18 09:14:44;;;;;;;1.77;1.67;;;25.90;87.90;;;;;;5087051;28;20640;-80
2023/08/18 09:17:11;;;;;;;2.47;2.03;;;26.10;87.40;;;;;;5086303;28;20632;-79
2023/08/18 09:19:38;;;;;;;2.20;2.00;;;26.20;87.60;;;;;;5083477;28;20757;-80
2023/08/18 09:22:05;;;;;;;3.07;2.87;;;26.30;86.40;;;;;;5085450;28;20613;-80
2023/08/18 09:24:33;;;;;;;1.90;1.80;;;26.20;87.90;;;;;;5085776;28;20662;-80
2023/08/18 09:27:08;;;;;;;3.70;2.20;;;26.30;85.30;;;;;;5086016;28;20633;-80
2023/08/18 09:29:36;;;;;;;2.93;2.00;;;26.40;88.10;;;;;;5085956;28;21191;-80
2023/08/18 09:32:03;;;;;;;4.20;2.20;;;26.60;86.40;;;;;;5086191;28;20648;-81
2023/08/18 09:34:32;;;;;;;5.60;2.87;;;26.70;86.30;;;;;;5086050;28;20613;-80
2023/08/18 09:36:58;;;;;;;3.60;2.57;;;26.70;87.20;;;;;;5086267;28;20632;-80
2023/08/18 09:39:26;;;;;;;4.07;2.20;;;26.80;83.90;;;;;;5085074;28;21231;-80
2023/08/18 09:41:54;;;;;;;2.10;1.90;;;26.90;85.90;;;;;;5085930;28;20639;-80
2023/08/18 09:44:23;;;;;;;3.43;3.03;;;26.90;84.40;;;;;;5086223;28;20661;-80
2023/08/18 09:46:51;;;;;;;5.63;1.83;;;26.90;89.80;;;;;;5086476;28;20983;-80
2023/08/18 09:49:19;;;;;;;2.70;1.97;;;27.00;84.20;;;;;;5085522;28;20779;-80
2023/08/18 09:51:47;;;;;;;2.57;2.37;;;27.10;89.10;;;;;;5086756;28;20621;-79
2023/08/18 09:54:18;;;;;;;2.20;1.80;;;27.20;84.90;;;;;;5084507;28;20629;-79
2023/08/18 09:56:47;;;;;;;2.20;2.00;;;27.30;84.90;;;;;;5084985;28;20620;-80
2023/08/18 09:59:20;;;;;;;1.90;1.80;;;27.50;84.90;;;;;;5086114;28;20739;-78
2023/08/18 10:01:51;;;;;;;4.17;2.10;;;27.50;83.80;;;;;;5083395;28;20640;-79
2023/08/18 10:04:19;;;;;;;2.73;2.53;;;27.70;84.40;;;;;;5085678;28;20633;-79
2023/08/18 10:06:46;;;;;;;2.00;1.90;;;27.70;84.10;;;;;;5084224;28;20628;-80
2023/08/18 10:09:13;;;;;;;2.07;1.97;;;27.80;83.60;;;;;;5086446;28;20748;-80
2023/08/18 10:11:41;;;;;;;2.07;1.97;;;27.90;83.30;;;;;;5085962;28;21179;-81
2023/08/18 10:14:08;;;;;;;1.93;1.83;;;28.00;82.30;;;;;;5085066;28;20659;-81
2023/08/18 10:16:37;;;;;;;8.00;2.43;;;28.20;81.90;;;;;;5085519;28;20719;-81
2023/08/18 10:19:05;;;;;;;3.80;2.43;;;28.40;82.50;;;;;;5085696;28;20626;-81
2023/08/18 10:21:32;;;;;;;6.30;2.17;;;28.40;82.20;;;;;;5086307;28;20632;-81
2023/08/18 10:24:02;;;;;;;3.17;2.80;;;28.40;80.20;;;;;;5086047;28;20631;-80
2023/08/18 10:26:29;;;;;;;4.23;2.60;;;28.50;81.20;;;;;;5086133;28;20620;-82
2023/08/18 10:29:14;;;;;;;2.93;2.70;;;28.60;79.60;;;;;;5084526;28;20636;-81
2023/08/18 10:31:47;;;;;;;2.47;1.50;;;28.60;79.90;;;;;;5085381;28;20625;-81
2023/08/18 10:34:21;;;;;;;2.60;2.40;;;28.60;79.70;;;;;;5085436;28;20656;-80
2023/08/18 10:36:48;;;;;;;4.57;1.80;;;28.80;79.90;;;;;;5085489;28;20635;-80
2023/08/18 10:39:24;;;;;;;2.60;2.30;;;29.00;79.70;;;;;;5084971;28;20620;-80
2023/08/18 10:42:05;;;;;;;2.57;2.33;;;29.20;78.10;;;;;;5084729;28;20628;-78
2023/08/18 10:44:32;;;;;;;4.77;1.90;;;29.20;78.20;;;;;;5085809;28;20631;-79
2023/08/18 10:47:00;;;;;;;2.10;2.00;;;29.10;80.00;;;;;;5085603;28;20640;-78
2023/08/18 10:49:29;;;;;;;3.33;1.77;;;29.30;77.70;;;;;;5088006;28;20624;-79
2023/08/18 10:51:55;;;;;;;1.73;1.63;;;29.20;76.60;;;;;;5087924;28;21298;-77
2023/08/18 10:54:23;;;;;;;3.80;2.13;;;29.40;78.50;;;;;;5089227;28;20995;-76
2023/08/18 10:56:50;;;;;;;1.90;1.60;;;29.50;73.80;;;;;;5088450;28;20623;-77
2023/08/18 10:59:19;;;;;;;2.20;2.00;;;29.60;75.40;;;;;;5088201;28;20723;-77
2023/08/18 11:01:46;;;;;;;1.90;1.80;;;29.70;72.40;;;;;;5087415;28;20628;-77
2023/08/18 11:04:15;;;;;;;2.27;2.07;;;29.90;73.10;;;;;;5087507;28;21445;-78
2023/08/18 11:06:43;;;;;;;2.90;1.90;;;30.00;72.50;;;;;;5088245;28;20627;-77
2023/08/18 11:09:11;;;;;;;2.17;1.93;;;30.10;72.50;;;;;;5088029;28;21600;-77
2023/08/18 11:11:39;;;;;;;1.73;1.47;;;30.40;75.40;;;;;;5088824;28;20658;-77
2023/08/18 11:14:07;;;;;;;2.80;2.40;;;30.70;72.30;;;;;;5088167;28;20651;-78
2023/08/18 11:16:37;;;;;;;1.60;1.50;;;30.80;71.50;;;;;;5088956;28;20865;-77
2023/08/18 11:19:05;;;;;;;1.83;1.73;;;30.90;67.80;;;;;;5088452;28;20635;-78
2023/08/18 11:21:35;;;;;;;1.87;1.77;;;30.90;66.30;;;;;;5088726;28;20624;-78
2023/08/18 11:24:04;;;;;;;1.90;1.50;;;30.90;66.30;;;;;;5088339;28;20628;-78
2023/08/18 11:26:36;;;;;;;1.23;1.13;;;31.20;66.30;;;;;;5088229;28;20628;-79
2023/08/18 11:29:04;;;;;;;2.07;1.87;;;31.50;65.70;;;;;;5085803;28;20644;-78
2023/08/18 11:31:31;;;;;;;2.30;2.03;;;31.50;63.40;;;;;;5087273;28;20757;-79
2023/08/18 11:33:58;;;;;;;2.13;2.03;;;31.70;64.10;;;;;;5087964;28;20655;-78
2023/08/18 11:36:30;;;;;;;1.50;1.40;;;31.80;62.80;;;;;;5087911;28;20657;-78
2023/08/18 11:39:00;;;;;;;1.80;1.70;;;32.00;62.40;;;;;;5087808;28;20623;-78
2023/08/18 11:41:35;;;;;;;3.00;1.77;;;32.30;64.90;;;;;;5088286;28;20657;-78
2023/08/18 11:44:02;;;;;;;1.57;1.50;;;32.60;59.40;;;;;;5087138;28;20634;-78
2023/08/18 11:46:30;;;;;;;2.77;1.57;;;32.90;57.40;;;;;;5088374;28;20632;-78
2023/08/18 11:48:59;;;;;;;1.20;1.10;;;33.00;57.20;;;;;;5087075;28;20625;-78
2023/08/18 11:51:26;;;;;;;4.20;1.97;;;33.20;56.90;;;;;;5087561;28;20671;-78
2023/08/18 11:53:53;;;;;;;2.10;1.90;;;33.60;59.50;;;;;;5087439;28;21029;-78
2023/08/18 11:56:20;;;;;;;2.00;1.80;;;34.00;55.90;;;;;;5086738;28;20725;-79
2023/08/18 11:58:49;;;;;;;1.90;1.80;;;34.70;55.50;;;;;;5088019;28;20625;-77
2023/08/18 12:01:17;;;;;;;1.50;1.40;;;35.10;56.20;;;;;;5087163;28;20626;-79
2023/08/18 12:03:55;;;;;;;3.03;1.77;;;35.60;56.30;;;;;;5086627;28;20623;-81
2023/08/18 12:06:24;;;;;;;3.27;1.67;;;36.20;53.80;;;;;;5087565;28;20632;-81
2023/08/18 12:08:51;;;;;;;1.80;1.70;;;37.10;50.90;;;;;;5086536;28;20216;-77
2023/08/18 12:11:17;;;;;;;1.80;1.70;;;37.60;49.40;;;;;;5087533;28;20304;-80
2023/08/18 12:13:44;;;;;;;1.35;1.30;;;38.20;51.20;;;;;;5087977;28;20221;-80
2023/08/18 12:16:12;;;;;;;3.80;1.90;;;38.40;49.50;;;;;;5087885;28;20210;-81
2023/08/18 12:18:39;;;;;;;2.17;2.00;;;39.20;46.00;;;;;;5087214;28;20206;-80
2023/08/18 12:21:06;;;;;;;3.72;1.50;;;39.40;44.60;;;;;;5085592;28;20210;-78
2023/08/18 12:23:33;;;;;;;1.65;1.55;;;39.50;47.90;;;;;;5088005;28;20325;-75
2023/08/18 12:26:00;;;;;;;1.55;1.25;;;39.80;45.20;;;;;;5088407;28;20556;-74
2023/08/18 12:28:27;;;;;;;1.85;1.75;;;40.20;45.40;;;;;;5086769;28;20233;-77
2023/08/18 12:30:53;;;;;;;2.20;1.73;;;40.20;45.80;;;;;;5086730;28;20202;-75
2023/08/18 12:33:23;;;;;;;1.55;1.45;;;40.40;44.30;;;;;;5087629;28;20212;-76
2023/08/18 12:35:50;;;;;;;2.13;1.70;;;40.70;45.20;;;;;;5086461;28;20933;-77
2023/08/18 12:38:17;;;;;;;2.78;1.60;;;40.80;44.90;;;;;;5088125;28;20202;-76
2023/08/18 12:40:44;;;;;;;2.03;1.75;;;41.00;44.30;;;;;;5086600;28;20290;-77
2023/08/18 12:43:11;;;;;;;1.30;1.25;;;41.10;43.20;;;;;;5086835;28;20224;-77
2023/08/18 12:45:38;;;;;;;1.60;1.50;;;41.70;41.70;;;;;;5086831;28;20247;-77
2023/08/18 12:48:06;;;;;;;1.98;1.88;;;41.70;42.00;;;;;;5086317;28;20209;-77
2023/08/18 12:50:34;;;;;;;1.67;1.58;;;41.70;42.30;;;;;;5085803;28;20571;-77